Time;durP1;ratioP1;P1;durP2;ratioP2;P2;SDS_P1;SDS_P2;PMS_P1;PMS_P2;Temp;Humidity;BMP_temperature;BMP_pressure;BME280_temperature;BME280_humidity;BME280_pressure;Samples;Min_cycle;Max_cycle;Signal;HPM_P1;HPM_P2
2022/03/02 00:00:16;;;;;;;;;56.75;41.25;;;;;;;;4964714;28;11556;-81
2022/03/02 00:02:44;;;;;;;;;56.25;45.00;;;;;;;;4951113;28;11550;-82
2022/03/02 00:05:13;;;;;;;;;45.50;41.00;;;;;;;;4972090;28;12488;-81
2022/03/02 00:07:40;;;;;;;;;45.75;41.50;;;;;;;;4965792;28;11569;-79
2022/03/02 00:10:09;;;;;;;;;55.00;47.00;;;;;;;;4975806;28;11582;-81
2022/03/02 00:12:38;;;;;;;;;64.00;51.00;;;;;;;;4975907;28;11552;-82
2022/03/02 00:15:06;;;;;;;;;52.75;43.75;;;;;;;;4988861;28;12891;-81
2022/03/02 00:17:33;;;;;;;;;40.50;37.75;;;;;;;;4991073;28;11594;-82
2022/03/02 00:20:00;;;;;;;;;44.25;40.75;;;;;;;;4985586;28;11650;-81
2022/03/02 00:22:28;;;;;;;;;57.50;46.00;;;;;;;;4955633;28;11580;-82
2022/03/02 00:24:55;;;;;;;;;44.50;39.00;;;;;;;;4985159;28;11604;-82
2022/03/02 00:27:24;;;;;;;;;47.50;40.25;;;;;;;;4989232;28;12369;-82
2022/03/02 00:29:53;;;;;;;;;39.75;39.00;;;;;;;;4985826;28;11620;-82
2022/03/02 00:32:20;;;;;;;;;54.00;42.50;;;;;;;;4984699;28;11541;-82
2022/03/02 00:34:48;;;;;;;;;51.00;45.75;;;;;;;;4968410;28;11588;-81
2022/03/02 00:37:15;;;;;;;;;58.25;45.00;;;;;;;;4984891;28;11606;-82
2022/03/02 00:39:44;;;;;;;;;53.00;44.00;;;;;;;;4980896;28;11599;-81
2022/03/02 00:42:11;;;;;;;;;43.00;38.25;;;;;;;;4984159;28;11618;-81
2022/03/02 00:44:38;;;;;;;;;48.50;41.50;;;;;;;;4986119;28;11620;-82
2022/03/02 00:47:09;;;;;;;;;52.00;41.00;;;;;;;;4984441;28;11610;-81
2022/03/02 00:49:36;;;;;;;;;55.50;44.50;;;;;;;;4967759;28;11660;-81
2022/03/02 00:52:06;;;;;;;;;50.75;43.25;;;;;;;;4985080;28;11709;-81
2022/03/02 00:54:33;;;;;;;;;47.25;41.50;;;;;;;;4983443;28;11573;-80
2022/03/02 00:57:01;;;;;;;;;53.50;43.25;;;;;;;;4984546;28;12151;-81
2022/03/02 00:59:28;;;;;;;;;47.50;42.75;;;;;;;;4984742;28;11628;-81
2022/03/02 01:01:55;;;;;;;;;55.75;45.25;;;;;;;;4984530;28;11629;-81
2022/03/02 01:04:24;;;;;;;;;55.50;42.75;;;;;;;;4966113;28;11704;-81
2022/03/02 01:06:52;;;;;;;;;47.00;39.50;;;;;;;;4985286;28;11707;-81
2022/03/02 01:09:19;;;;;;;;;55.50;43.25;;;;;;;;4967886;28;11591;-81
2022/03/02 01:11:47;;;;;;;;;60.00;46.75;;;;;;;;4972818;28;11634;-81
2022/03/02 01:14:14;;;;;;;;;42.25;39.75;;;;;;;;4970118;28;11600;-81
2022/03/02 01:16:41;;;;;;;;;52.75;43.75;;;;;;;;4962615;28;11576;-81
2022/03/02 01:19:08;;;;;;;;;57.00;43.00;;;;;;;;4965700;28;11671;-81
2022/03/02 01:21:38;;;;;;;;;39.00;35.25;;;;;;;;4964745;28;11679;-81
2022/03/02 01:24:05;;;;;;;;;47.00;39.00;;;;;;;;4965361;28;11595;-81
2022/03/02 01:26:32;;;;;;;;;48.50;41.25;;;;;;;;4965565;28;11666;-81
2022/03/02 01:29:00;;;;;;;;;47.00;42.50;;;;;;;;4965219;28;11672;-81
2022/03/02 01:31:28;;;;;;;;;40.25;38.00;;;;;;;;4963812;28;11565;-81
2022/03/02 01:33:56;;;;;;;;;52.25;46.50;;;;;;;;4964742;28;11757;-81
2022/03/02 01:36:23;;;;;;;;;56.75;44.25;;;;;;;;4964709;28;11567;-81
2022/03/02 01:38:52;;;;;;;;;52.00;44.25;;;;;;;;4962643;28;11614;-81
2022/03/02 01:41:22;;;;;;;;;52.75;42.00;;;;;;;;4950017;28;11080;-81
2022/03/02 01:43:50;;;;;;;;;58.25;47.00;;;;;;;;4965736;28;11548;-81
2022/03/02 01:46:18;;;;;;;;;51.25;41.50;;;;;;;;4964984;28;11538;-82
2022/03/02 01:48:47;;;;;;;;;50.00;41.75;;;;;;;;4946925;28;11542;-81
2022/03/02 01:51:15;;;;;;;;;57.75;44.75;;;;;;;;4963654;28;11558;-81
2022/03/02 01:53:43;;;;;;;;;53.25;42.25;;;;;;;;4965257;28;11684;-81
2022/03/02 01:56:13;;;;;;;;;51.75;43.00;;;;;;;;4963966;28;12415;-81
2022/03/02 01:58:40;;;;;;;;;48.75;42.00;;;;;;;;4965645;28;12435;-81
2022/03/02 02:01:07;;;;;;;;;53.00;42.00;;;;;;;;4962969;28;11471;-81
2022/03/02 02:03:35;;;;;;;;;49.00;42.25;;;;;;;;4958123;28;11572;-80
2022/03/02 02:06:03;;;;;;;;;42.25;40.50;;;;;;;;4947499;28;11571;-80
2022/03/02 02:08:31;;;;;;;;;42.25;36.75;;;;;;;;4963591;28;11565;-81
2022/03/02 02:11:00;;;;;;;;;43.00;37.00;;;;;;;;4964082;28;12354;-81
2022/03/02 02:13:32;;;;;;;;;40.00;39.25;;;;;;;;4966022;28;11597;-82
2022/03/02 02:15:59;;;;;;;;;47.25;38.75;;;;;;;;4964481;28;11573;-82
2022/03/02 02:18:26;;;;;;;;;33.50;30.50;;;;;;;;4963697;28;11696;-81
2022/03/02 02:20:55;;;;;;;;;43.00;41.00;;;;;;;;4963546;28;11556;-81
2022/03/02 02:23:22;;;;;;;;;36.75;34.75;;;;;;;;4964645;28;11570;-82
2022/03/02 02:25:50;;;;;;;;;48.75;39.25;;;;;;;;4963012;28;11671;-82
2022/03/02 02:28:23;;;;;;;;;43.50;41.75;;;;;;;;4963470;28;11560;-80
2022/03/02 02:30:52;;;;;;;;;51.50;42.00;;;;;;;;4958154;28;11491;-81
2022/03/02 02:33:19;;;;;;;;;46.25;40.75;;;;;;;;4965513;28;11576;-81
2022/03/02 02:35:47;;;;;;;;;45.75;38.50;;;;;;;;4946023;28;11590;-81
2022/03/02 02:38:17;;;;;;;;;38.50;34.00;;;;;;;;4963422;28;11582;-88
2022/03/02 02:40:44;;;;;;;;;47.00;38.75;;;;;;;;4964525;28;11549;-83
2022/03/02 02:43:12;;;;;;;;;43.50;39.00;;;;;;;;4961461;28;11604;-82
2022/03/02 02:45:39;;;;;;;;;53.50;43.00;;;;;;;;4963042;28;12431;-80
2022/03/02 02:48:07;;;;;;;;;51.25;42.00;;;;;;;;4960939;28;11570;-81
2022/03/02 02:50:35;;;;;;;;;39.25;38.75;;;;;;;;4964068;28;11530;-80
2022/03/02 02:53:06;;;;;;;;;45.00;39.50;;;;;;;;4963161;28;11756;-80
2022/03/02 02:55:36;;;;;;;;;42.25;39.50;;;;;;;;4964963;28;11543;-81
2022/03/02 02:58:04;;;;;;;;;49.25;43.25;;;;;;;;4964178;28;11561;-81
2022/03/02 03:00:34;;;;;;;;;38.50;36.50;;;;;;;;4962330;28;11621;-81
2022/03/02 03:03:01;;;;;;;;;48.75;41.50;;;;;;;;4965164;28;11566;-81
2022/03/02 03:05:32;;;;;;;;;42.25;39.75;;;;;;;;4963540;28;11543;-80
2022/03/02 03:08:01;;;;;;;;;39.50;38.75;;;;;;;;4964235;28;11590;-81
2022/03/02 03:10:28;;;;;;;;;47.50;41.00;;;;;;;;4945996;28;11580;-80
2022/03/02 03:12:58;;;;;;;;;50.25;43.00;;;;;;;;4967242;28;11577;-81
2022/03/02 03:15:25;;;;;;;;;48.25;43.00;;;;;;;;4982357;28;11603;-81
2022/03/02 03:17:53;;;;;;;;;45.50;41.50;;;;;;;;4983037;28;11584;-81
2022/03/02 03:20:24;;;;;;;;;44.25;38.50;;;;;;;;4983398;28;11648;-80
2022/03/02 03:22:52;;;;;;;;;31.50;30.50;;;;;;;;4983101;28;11645;-81
2022/03/02 03:25:20;;;;;;;;;43.50;35.50;;;;;;;;4983297;28;11628;-81
2022/03/02 03:27:48;;;;;;;;;41.75;40.00;;;;;;;;4983051;28;11590;-80
2022/03/02 03:30:19;;;;;;;;;47.00;40.00;;;;;;;;4982541;28;11621;-80
2022/03/02 03:32:46;;;;;;;;;42.00;39.50;;;;;;;;4965404;28;12376;-81
2022/03/02 03:35:14;;;;;;;;;49.50;43.25;;;;;;;;4982516;28;11598;-80
2022/03/02 03:37:42;;;;;;;;;48.50;40.50;;;;;;;;4983980;28;12362;-80
2022/03/02 03:40:11;;;;;;;;;48.00;39.25;;;;;;;;4984666;28;11719;-81
2022/03/02 03:42:39;;;;;;;;;46.25;41.00;;;;;;;;4986571;28;11624;-81
2022/03/02 03:45:08;;;;;;;;;46.00;37.75;;;;;;;;4985933;28;11857;-81
2022/03/02 03:47:37;;;;;;;;;50.75;39.25;;;;;;;;4974814;28;11713;-81
2022/03/02 03:50:05;;;;;;;;;38.75;32.75;;;;;;;;4986612;28;11595;-81
2022/03/02 03:52:32;;;;;;;;;45.75;40.50;;;;;;;;4985896;28;11656;-81
2022/03/02 03:55:00;;;;;;;;;38.50;34.25;;;;;;;;4986994;28;11606;-81
2022/03/02 03:57:27;;;;;;;;;35.75;35.25;;;;;;;;4985606;28;11612;-81
2022/03/02 03:59:54;;;;;;;;;43.25;33.75;;;;;;;;4968555;28;11643;-81
2022/03/02 04:02:22;;;;;;;;;40.25;38.00;;;;;;;;4983116;28;11571;-81
2022/03/02 04:04:51;;;;;;;;;48.50;41.00;;;;;;;;4987748;28;11762;-81
2022/03/02 04:07:18;;;;;;;;;44.00;37.25;;;;;;;;4986745;28;11746;-81
2022/03/02 04:09:45;;;;;;;;;32.00;26.00;;;;;;;;4985978;28;11660;-81
2022/03/02 04:12:12;;;;;;;;;42.25;34.25;;;;;;;;4987130;28;11693;-81
2022/03/02 04:14:40;;;;;;;;;40.50;36.75;;;;;;;;4985943;28;11608;-82
2022/03/02 04:17:07;;;;;;;;;39.75;37.00;;;;;;;;4984415;28;11595;-82
2022/03/02 04:19:35;;;;;;;;;52.00;41.50;;;;;;;;4985156;28;11719;-81
2022/03/02 04:22:04;;;;;;;;;42.00;35.75;;;;;;;;4978040;28;12412;-81
2022/03/02 04:24:32;;;;;;;;;49.00;42.25;;;;;;;;4985822;28;11610;-81
2022/03/02 04:26:59;;;;;;;;;36.50;35.00;;;;;;;;4986467;28;11222;-82
2022/03/02 04:29:26;;;;;;;;;42.75;38.25;;;;;;;;4986390;28;11610;-81
2022/03/02 04:31:53;;;;;;;;;40.00;36.25;;;;;;;;4984525;28;11601;-81
2022/03/02 04:34:21;;;;;;;;;42.75;39.00;;;;;;;;4986342;28;11641;-81
2022/03/02 04:36:48;;;;;;;;;29.25;28.75;;;;;;;;4985290;28;12507;-80
2022/03/02 04:39:17;;;;;;;;;33.75;30.25;;;;;;;;4986472;28;11593;-80
2022/03/02 04:41:44;;;;;;;;;43.75;39.00;;;;;;;;4984533;28;11580;-81
2022/03/02 04:44:12;;;;;;;;;38.75;26.00;;;;;;;;4986205;28;11625;-81
2022/03/02 04:46:39;;;;;;;;;35.25;32.50;;;;;;;;4986028;28;11578;-80
2022/03/02 04:49:12;;;;;;;;;33.75;33.75;;;;;;;;4985021;28;11723;-80
2022/03/02 04:51:40;;;;;;;;;34.25;30.50;;;;;;;;4985356;28;11618;-81
2022/03/02 04:55:05;;;;;;;;;36.75;32.75;;;;;;;;4984756;28;11757;-80
2022/03/02 04:56:58;;;;;;;;;38.25;35.50;;;;;;;;4986337;28;11602;-81
2022/03/02 04:59:26;;;;;;;;;35.00;30.75;;;;;;;;4985823;28;11609;-81
2022/03/02 05:01:53;;;;;;;;;38.75;36.75;;;;;;;;4983966;28;11537;-81
2022/03/02 05:04:21;;;;;;;;;52.25;41.00;;;;;;;;4985424;28;11638;-81
2022/03/02 05:06:50;;;;;;;;;37.00;34.25;;;;;;;;4984983;28;11732;-81
2022/03/02 05:09:17;;;;;;;;;37.25;35.25;;;;;;;;4985265;28;11607;-82
2022/03/02 05:11:44;;;;;;;;;30.50;27.00;;;;;;;;4971222;28;11605;-81
2022/03/02 05:14:13;;;;;;;;;37.50;31.25;;;;;;;;4977358;28;11557;-83
2022/03/02 05:16:40;;;;;;;;;39.75;35.50;;;;;;;;4966240;28;11563;-83
2022/03/02 05:19:08;;;;;;;;;33.50;31.00;;;;;;;;4966120;28;11131;-83
2022/03/02 05:21:36;;;;;;;;;32.50;30.25;;;;;;;;4967040;28;11652;-81
2022/03/02 05:24:03;;;;;;;;;43.75;34.00;;;;;;;;4949666;28;11548;-78
2022/03/02 05:26:31;;;;;;;;;38.75;35.75;;;;;;;;4964561;28;11579;-84
2022/03/02 05:28:58;;;;;;;;;40.25;36.75;;;;;;;;4967062;28;11660;-83
2022/03/02 05:31:27;;;;;;;;;34.25;30.25;;;;;;;;4968318;28;11526;-83
2022/03/02 05:33:54;;;;;;;;;40.25;35.00;;;;;;;;4965289;28;12090;-85
2022/03/02 05:36:22;;;;;;;;;35.25;29.75;;;;;;;;4948425;28;11714;-81
2022/03/02 05:38:49;;;;;;;;;39.75;29.25;;;;;;;;4966754;28;11646;-81
2022/03/02 05:41:17;;;;;;;;;36.75;29.50;;;;;;;;4963227;28;11677;-83
2022/03/02 05:43:45;;;;;;;;;36.25;29.00;;;;;;;;4964837;28;11537;-82
2022/03/02 05:46:12;;;;;;;;;35.00;33.25;;;;;;;;4963122;28;11560;-82
2022/03/02 05:48:41;;;;;;;;;29.50;26.50;;;;;;;;4966674;28;11588;-82
2022/03/02 05:51:09;;;;;;;;;39.25;34.25;;;;;;;;4962052;28;11574;-82
2022/03/02 05:53:36;;;;;;;;;39.00;33.25;;;;;;;;4964028;28;11621;-81
2022/03/02 05:56:04;;;;;;;;;31.50;31.50;;;;;;;;4961523;28;11568;-81
2022/03/02 05:58:31;;;;;;;;;39.25;32.50;;;;;;;;4947978;28;11562;-82
2022/03/02 06:00:59;;;;;;;;;32.75;31.00;;;;;;;;4961446;28;11707;-82
2022/03/02 06:03:27;;;;;;;;;34.00;31.25;;;;;;;;4943851;28;11610;-82
2022/03/02 06:05:56;;;;;;;;;36.75;32.75;;;;;;;;4963720;28;11602;-82
2022/03/02 06:08:23;;;;;;;;;33.25;31.25;;;;;;;;4960486;28;11693;-82
2022/03/02 06:10:50;;;;;;;;;38.00;35.75;;;;;;;;4943839;28;11625;-82
2022/03/02 06:13:18;;;;;;;;;36.50;34.00;;;;;;;;4960797;28;11597;-82
2022/03/02 06:15:46;;;;;;;;;33.25;31.00;;;;;;;;4960626;28;11668;-82
2022/03/02 06:18:14;;;;;;;;;28.50;27.25;;;;;;;;4960776;28;11155;-80
2022/03/02 06:20:43;;;;;;;;;33.25;33.25;;;;;;;;4959333;28;11615;-82
2022/03/02 06:23:13;;;;;;;;;36.00;33.50;;;;;;;;4962190;28;11614;-82
2022/03/02 06:25:41;;;;;;;;;40.75;32.75;;;;;;;;4944385;28;12480;-84
2022/03/02 06:28:10;;;;;;;;;38.75;29.25;;;;;;;;4958784;28;11616;-82
2022/03/02 06:30:38;;;;;;;;;40.50;34.75;;;;;;;;4962157;28;11560;-85
2022/03/02 06:33:05;;;;;;;;;44.75;41.25;;;;;;;;4963145;28;11790;-85
2022/03/02 06:35:32;;;;;;;;;48.50;40.00;;;;;;;;4962368;28;11581;-85
2022/03/02 06:38:10;;;;;;;;;37.50;36.00;;;;;;;;4961535;28;12317;-85
2022/03/02 06:40:39;;;;;;;;;32.50;32.00;;;;;;;;4964524;28;11617;-84
2022/03/02 06:43:08;;;;;;;;;44.50;39.75;;;;;;;;4962812;28;12383;-86
2022/03/02 06:45:55;;;;;;;;;43.00;36.25;;;;;;;;4965509;28;11600;-87
2022/03/02 06:48:25;;;;;;;;;29.25;29.25;;;;;;;;4964306;28;11658;-89
2022/03/02 06:50:53;;;;;;;;;29.50;29.50;;;;;;;;4946055;28;11623;-78
2022/03/02 06:53:30;;;;;;;;;38.00;31.00;;;;;;;;4963905;28;11725;-79
2022/03/02 06:56:00;;;;;;;;;34.25;33.25;;;;;;;;4959539;28;11595;-77
2022/03/02 06:58:29;;;;;;;;;35.75;31.00;;;;;;;;4963518;28;11677;-74
2022/03/02 07:00:58;;;;;;;;;42.75;36.50;;;;;;;;4961618;28;11562;-77
2022/03/02 07:03:28;;;;;;;;;32.00;28.50;;;;;;;;4960762;28;11636;-77
2022/03/02 07:05:56;;;;;;;;;29.00;29.00;;;;;;;;4963963;28;11556;-79
2022/03/02 07:08:23;;;;;;;;;35.00;33.00;;;;;;;;4962753;28;11599;-80
2022/03/02 07:10:52;;;;;;;;;31.50;21.00;;;;;;;;4963305;28;11597;-78
2022/03/02 07:13:22;;;;;;;;;36.75;29.50;;;;;;;;4967113;28;11144;-80
2022/03/02 07:15:52;;;;;;;;;29.75;26.25;;;;;;;;4982516;28;12433;-79
2022/03/02 07:18:20;;;;;;;;;38.50;35.25;;;;;;;;4982305;28;11662;-78
2022/03/02 07:20:48;;;;;;;;;32.25;28.25;;;;;;;;4965532;28;11595;-79
2022/03/02 07:23:18;;;;;;;;;38.00;32.75;;;;;;;;4982003;28;11588;-81
2022/03/02 07:25:46;;;;;;;;;35.25;32.50;;;;;;;;4985594;28;11778;-84
2022/03/02 07:28:15;;;;;;;;;30.75;26.75;;;;;;;;4983588;28;11609;-79
2022/03/02 07:30:45;;;;;;;;;40.25;34.00;;;;;;;;4980834;28;11607;-79
2022/03/02 07:33:16;;;;;;;;;36.50;32.50;;;;;;;;4983593;28;11671;-80
2022/03/02 07:35:49;;;;;;;;;29.00;25.50;;;;;;;;4981850;28;11579;-80
2022/03/02 07:38:17;;;;;;;;;31.75;26.00;;;;;;;;4983777;28;11679;-79
2022/03/02 07:40:45;;;;;;;;;28.50;23.50;;;;;;;;4982154;28;11937;-79
2022/03/02 07:43:12;;;;;;;;;29.75;27.50;;;;;;;;4963430;28;11672;-78
2022/03/02 07:45:40;;;;;;;;;38.75;36.25;;;;;;;;4982889;28;11593;-85
2022/03/02 07:48:10;;;;;;;;;31.25;27.00;;;;;;;;4981538;28;11608;-84
2022/03/02 07:50:40;;;;;;;;;33.50;27.50;;;;;;;;4981084;28;11795;-85
2022/03/02 07:53:08;;;;;;;;;32.00;29.25;;;;;;;;4967026;28;11706;-82
2022/03/02 07:55:37;;;;;;;;;33.75;28.00;;;;;;;;4982457;28;11593;-82
2022/03/02 07:58:05;;;;;;;;;33.75;33.00;;;;;;;;4965037;28;11592;-79
2022/03/02 08:00:33;;;;;;;;;41.00;35.75;;;;;;;;4981360;28;12831;-79
2022/03/02 08:03:02;;;;;;;;;36.75;32.50;;;;;;;;4982618;28;11615;-78
2022/03/02 08:05:31;;;;;;;;;28.25;23.50;;;;;;;;4982204;28;11699;-77
2022/03/02 08:07:59;;;;;;;;;36.00;29.00;;;;;;;;4983125;28;11660;-79
2022/03/02 08:10:26;;;;;;;;;32.50;27.00;;;;;;;;4981518;28;11677;-79
2022/03/02 08:12:54;;;;;;;;;30.00;27.50;;;;;;;;4980733;28;11678;-79
2022/03/02 08:15:23;;;;;;;;;21.00;18.75;;;;;;;;4962571;28;11629;-80
2022/03/02 08:17:52;;;;;;;;;30.25;26.50;;;;;;;;4956229;28;12518;-83
2022/03/02 08:20:19;;;;;;;;;32.50;29.25;;;;;;;;4945252;28;11585;-81
2022/03/02 08:22:51;;;;;;;;;32.25;27.25;;;;;;;;4963228;28;11596;-81
2022/03/02 08:25:22;;;;;;;;;39.50;34.50;;;;;;;;4962187;28;11602;-78
2022/03/02 08:27:52;;;;;;;;;31.75;28.00;;;;;;;;4966399;28;11639;-80
2022/03/02 08:30:19;;;;;;;;;27.00;24.75;;;;;;;;4965925;28;11599;-80
2022/03/02 08:32:49;;;;;;;;;26.75;26.25;;;;;;;;4949183;28;11626;-79
2022/03/02 08:35:17;;;;;;;;;29.25;26.50;;;;;;;;4966474;28;11628;-79
2022/03/02 08:37:45;;;;;;;;;32.25;29.00;;;;;;;;4967415;28;12503;-80
2022/03/02 08:40:15;;;;;;;;;40.75;34.75;;;;;;;;4965117;28;11676;-84
2022/03/02 08:42:44;;;;;;;;;35.50;30.75;;;;;;;;4967977;28;12384;-80
2022/03/02 08:45:12;;;;;;;;;36.00;34.25;;;;;;;;4965095;28;12435;-79
2022/03/02 08:47:39;;;;;;;;;34.25;33.50;;;;;;;;4965835;28;11617;-79
2022/03/02 08:50:08;;;;;;;;;37.50;35.25;;;;;;;;4964292;28;11802;-81
2022/03/02 08:52:36;;;;;;;;;43.25;33.50;;;;;;;;4966608;28;11631;-82
2022/03/02 08:55:08;;;;;;;;;33.75;29.25;;;;;;;;4966365;28;11694;-81
2022/03/02 08:57:41;;;;;;;;;41.50;34.25;;;;;;;;4965699;28;11616;-88
2022/03/02 09:00:10;;;;;;;;;31.25;28.75;;;;;;;;4964999;28;11632;-82
2022/03/02 09:02:38;;;;;;;;;40.00;34.75;;;;;;;;4965179;28;11761;-81
2022/03/02 09:05:08;;;;;;;;;42.25;35.25;;;;;;;;4966451;28;11644;-81
2022/03/02 09:07:36;;;;;;;;;30.00;27.75;;;;;;;;4966097;28;11609;-80
2022/03/02 09:10:05;;;;;;;;;19.00;16.50;;;;;;;;4966379;28;11586;-81
2022/03/02 09:12:34;;;;;;;;;34.25;30.75;;;;;;;;4967056;28;11594;-81
2022/03/02 09:15:03;;;;;;;;;31.50;31.50;;;;;;;;4955604;28;11691;-81
2022/03/02 09:17:31;;;;;;;;;38.75;31.75;;;;;;;;4979803;28;11661;-81
2022/03/02 09:19:58;;;;;;;;;29.25;27.75;;;;;;;;4978285;28;11722;-82
2022/03/02 09:22:27;;;;;;;;;36.25;33.25;;;;;;;;4978480;28;11735;-81
2022/03/02 09:24:55;;;;;;;;;37.00;31.00;;;;;;;;4981531;28;11669;-81
2022/03/02 09:27:27;;;;;;;;;39.75;34.75;;;;;;;;4977049;28;11633;-81
2022/03/02 09:29:59;;;;;;;;;31.25;27.75;;;;;;;;4986489;28;11611;-81
2022/03/02 09:32:28;;;;;;;;;34.00;31.50;;;;;;;;4966461;28;12200;-81
2022/03/02 09:34:57;;;;;;;;;28.00;28.00;;;;;;;;4986482;28;11655;-82
2022/03/02 09:37:27;;;;;;;;;29.75;28.50;;;;;;;;4985271;28;11659;-83
2022/03/02 09:39:55;;;;;;;;;30.75;29.25;;;;;;;;4975221;28;11630;-83
2022/03/02 09:42:26;;;;;;;;;31.00;29.25;;;;;;;;4988840;28;11635;-82
2022/03/02 09:45:01;;;;;;;;;34.75;29.25;;;;;;;;4980517;28;11720;-81
2022/03/02 09:47:43;;;;;;;;;32.00;30.00;;;;;;;;4984741;28;11629;-81
2022/03/02 09:50:13;;;;;;;;;28.50;28.25;;;;;;;;4965640;28;11646;-82
2022/03/02 09:52:42;;;;;;;;;32.25;31.25;;;;;;;;4972637;28;11597;-81
2022/03/02 09:55:12;;;;;;;;;35.75;30.00;;;;;;;;4959955;28;11593;-82
2022/03/02 09:57:43;;;;;;;;;27.25;25.75;;;;;;;;4965924;28;11639;-83
2022/03/02 10:00:13;;;;;;;;;30.75;28.75;;;;;;;;4978678;28;11586;-83
2022/03/02 10:02:55;;;;;;;;;32.50;25.25;;;;;;;;4984728;28;11598;-81
2022/03/02 10:05:23;;;;;;;;;23.75;23.75;;;;;;;;4986982;28;11627;-80
2022/03/02 10:08:02;;;;;;;;;25.75;25.75;;;;;;;;4967465;28;13065;-79
2022/03/02 10:10:33;;;;;;;;;42.00;37.00;;;;;;;;4985074;28;11580;-79
2022/03/02 10:13:03;;;;;;;;;22.75;22.50;;;;;;;;4973817;28;11761;-80
2022/03/02 10:15:31;;;;;;;;;21.75;19.25;;;;;;;;4965499;28;11695;-80
2022/03/02 10:18:11;;;;;;;;;33.75;27.75;;;;;;;;4962422;28;11546;-81
2022/03/02 10:20:41;;;;;;;;;33.75;31.00;;;;;;;;4964136;28;11303;-80
2022/03/02 10:23:24;;;;;;;;;29.25;24.25;;;;;;;;4966220;28;12321;-80
2022/03/02 10:26:01;;;;;;;;;32.25;29.25;;;;;;;;4948173;28;11349;-80
2022/03/02 10:28:29;;;;;;;;;30.50;28.25;;;;;;;;4966149;28;11401;-80
2022/03/02 10:31:26;;;;;;;;;29.75;28.00;;;;;;;;4964049;28;11024;-80
2022/03/02 10:33:56;;;;;;;;;30.00;28.50;;;;;;;;4968273;28;11081;-80
2022/03/02 10:36:28;;;;;;;;;37.00;29.25;;;;;;;;4966113;28;11069;-79
2022/03/02 10:39:05;;;;;;;;;32.75;29.00;;;;;;;;4964822;28;11054;-80
2022/03/02 10:41:39;;;;;;;;;37.50;33.00;;;;;;;;4965053;28;11163;-80
2022/03/02 10:44:10;;;;;;;;;35.75;32.00;;;;;;;;4964521;28;10962;-80
2022/03/02 10:46:42;;;;;;;;;22.00;22.00;;;;;;;;4965159;28;10938;-79
2022/03/02 10:49:14;;;;;;;;;30.50;28.25;;;;;;;;4979829;28;10946;-80
2022/03/02 10:51:43;;;;;;;;;35.25;33.50;;;;;;;;4964335;28;10881;-81
2022/03/02 10:54:15;;;;;;;;;33.50;33.50;;;;;;;;4966201;28;11197;-80
2022/03/02 10:56:46;;;;;;;;;36.00;33.00;;;;;;;;4964545;28;11882;-80
2022/03/02 10:59:16;;;;;;;;;27.25;24.25;;;;;;;;4965381;28;11271;-79
2022/03/02 11:01:48;;;;;;;;;31.00;30.00;;;;;;;;4973658;28;11165;-81
2022/03/02 11:04:21;;;;;;;;;34.75;31.00;;;;;;;;4978588;28;10930;-79
2022/03/02 11:06:48;;;;;;;;;42.00;37.00;;;;;;;;4984983;28;11046;-79
2022/03/02 11:09:18;;;;;;;;;41.75;35.00;;;;;;;;4983943;28;11070;-80
2022/03/02 11:11:45;;;;;;;;;39.25;33.25;;;;;;;;4954317;28;10958;-81
2022/03/02 11:14:13;;;;;;;;;33.00;29.75;;;;;;;;4987780;28;11021;-80
2022/03/02 11:16:43;;;;;;;;;32.75;29.50;;;;;;;;4982422;28;10909;-80
2022/03/02 11:19:15;;;;;;;;;32.50;30.25;;;;;;;;5003790;28;11408;-80
2022/03/02 11:21:46;;;;;;;;;28.00;28.00;;;;;;;;4992864;28;10685;-81
2022/03/02 11:24:16;;;;;;;;;28.00;26.75;;;;;;;;4976701;28;10641;-80
2022/03/02 11:26:48;;;;;;;;;31.00;30.50;;;;;;;;4972394;28;10617;-79
2022/03/02 11:29:17;;;;;;;;;30.50;28.25;;;;;;;;5004489;28;10538;-81
2022/03/02 11:31:47;;;;;;;;;32.00;31.75;;;;;;;;4988213;28;10460;-81
2022/03/02 11:34:17;;;;;;;;;31.25;28.50;;;;;;;;4972770;28;10612;-80
2022/03/02 11:36:48;;;;;;;;;33.25;31.75;;;;;;;;4984598;28;10483;-80
2022/03/02 11:39:18;;;;;;;;;31.50;30.00;;;;;;;;4979714;28;10394;-81
2022/03/02 11:41:48;;;;;;;;;33.50;31.75;;;;;;;;4957452;28;10409;-81
2022/03/02 11:44:35;;;;;;;;;39.75;30.50;;;;;;;;4975936;28;10490;-81
2022/03/02 11:47:04;;;;;;;;;27.25;25.25;;;;;;;;4976566;28;10453;-81
2022/03/02 11:49:41;;;;;;;;;31.75;27.25;;;;;;;;4984053;28;10489;-80
2022/03/02 11:52:14;;;;;;;;;26.00;23.75;;;;;;;;4977985;28;10338;-82
2022/03/02 11:55:10;;;;;;;;;34.00;32.75;;;;;;;;4963172;28;10454;-83
2022/03/02 11:57:39;;;;;;;;;33.00;30.25;;;;;;;;4970560;28;11055;-79
2022/03/02 12:00:13;;;;;;;;;27.75;24.00;;;;;;;;4963422;28;10284;-77
2022/03/02 12:02:45;;;;;;;;;26.50;22.50;;;;;;;;4972482;28;10327;-77
2022/03/02 12:05:14;;;;;;;;;25.50;23.50;;;;;;;;4974961;28;10369;-77
2022/03/02 12:07:44;;;;;;;;;28.00;27.75;;;;;;;;4970409;28;10419;-80
2022/03/02 12:10:21;;;;;;;;;36.00;32.00;;;;;;;;4948233;28;10421;-77
2022/03/02 12:12:50;;;;;;;;;34.50;32.50;;;;;;;;4965608;28;10557;-79
2022/03/02 12:15:17;;;;;;;;;34.50;32.50;;;;;;;;4985052;28;10506;-79
2022/03/02 12:17:45;;;;;;;;;39.75;34.00;;;;;;;;4968429;28;10574;-80
2022/03/02 12:20:14;;;;;;;;;31.75;28.00;;;;;;;;4969424;28;10487;-79
2022/03/02 12:22:45;;;;;;;;;35.75;34.00;;;;;;;;4984667;28;10555;-77
2022/03/02 12:25:14;;;;;;;;;31.00;28.50;;;;;;;;4982846;28;10626;-77
2022/03/02 12:27:49;;;;;;;;;25.50;23.50;;;;;;;;4959535;28;10524;-79
2022/03/02 12:30:16;;;;;;;;;43.50;35.75;;;;;;;;4983419;28;10589;-77
2022/03/02 12:32:43;;;;;;;;;35.00;30.75;;;;;;;;4996035;28;10883;-78
2022/03/02 12:35:13;;;;;;;;;33.50;25.25;;;;;;;;4993211;28;10621;-80
2022/03/02 12:37:41;;;;;;;;;41.25;36.50;;;;;;;;4985879;28;10556;-81
2022/03/02 12:40:13;;;;;;;;;30.75;30.75;;;;;;;;4985783;28;10669;-79
2022/03/02 12:42:42;;;;;;;;;36.50;33.00;;;;;;;;4974000;28;10464;-79
2022/03/02 12:45:11;;;;;;;;;36.00;32.75;;;;;;;;4983347;28;10787;-78
2022/03/02 12:47:39;;;;;;;;;39.25;32.00;;;;;;;;4990080;28;10563;-80
2022/03/02 12:50:10;;;;;;;;;42.75;36.00;;;;;;;;4986240;28;10568;-77
2022/03/02 12:52:38;;;;;;;;;39.25;33.00;;;;;;;;4990178;28;10610;-81
2022/03/02 12:55:07;;;;;;;;;35.75;32.25;;;;;;;;4989802;28;10389;-81
2022/03/02 12:57:36;;;;;;;;;34.75;32.75;;;;;;;;4987239;28;10495;-78
2022/03/02 13:00:09;;;;;;;;;35.00;34.00;;;;;;;;4966686;28;10387;-76
2022/03/02 13:02:38;;;;;;;;;37.50;34.50;;;;;;;;4981714;28;10432;-78
2022/03/02 13:05:14;;;;;;;;;34.00;34.00;;;;;;;;4983301;28;10389;-85
2022/03/02 13:08:16;;;;;;;;;35.75;32.00;;;;;;;;4982746;28;10404;-78
2022/03/02 13:10:45;;;;;;;;;35.50;31.75;;;;;;;;4985583;28;10635;-79
2022/03/02 13:13:14;;;;;;;;;31.75;25.75;;;;;;;;4986377;28;10458;-88
2022/03/02 13:15:44;;;;;;;;;29.25;26.50;;;;;;;;4987132;28;10389;-82
2022/03/02 13:18:20;;;;;;;;;35.00;33.25;;;;;;;;4986669;28;10514;-83
2022/03/02 13:20:50;;;;;;;;;37.00;34.75;;;;;;;;4984110;28;10402;-81
2022/03/02 13:23:19;;;;;;;;;43.00;33.50;;;;;;;;4979238;28;10409;-82
2022/03/02 13:26:11;;;;;;;;;33.25;33.25;;;;;;;;4966927;28;10520;-83
2022/03/02 13:29:01;;;;;;;;;37.50;34.00;;;;;;;;4983886;28;10543;-81
2022/03/02 13:31:29;;;;;;;;;36.50;32.00;;;;;;;;4989598;28;10343;-81
2022/03/02 13:34:09;;;;;;;;;37.50;36.50;;;;;;;;4974503;28;10461;-80
2022/03/02 13:36:38;;;;;;;;;33.25;30.75;;;;;;;;4980292;28;10409;-81
2022/03/02 13:39:09;;;;;;;;;37.75;34.25;;;;;;;;4979139;28;10473;-81
2022/03/02 13:41:46;;;;;;;;;26.25;24.75;;;;;;;;4987711;28;10489;-80
2022/03/02 13:44:39;;;;;;;;;34.50;33.75;;;;;;;;4986225;28;10428;-80
2022/03/02 13:47:18;;;;;;;;;33.00;32.25;;;;;;;;4987326;28;10371;-80
2022/03/02 13:49:59;;;;;;;;;36.50;34.25;;;;;;;;4988720;28;10222;-82
2022/03/02 13:53:04;;;;;;;;;42.50;37.75;;;;;;;;4955871;28;10283;-79
2022/03/02 13:55:36;;;;;;;;;41.75;35.25;;;;;;;;4994170;28;10314;-78
2022/03/02 13:58:26;;;;;;;;;35.00;32.50;;;;;;;;4986427;28;10409;-80
2022/03/02 14:00:56;;;;;;;;;20.25;17.25;;;;;;;;4983953;28;10146;-80
2022/03/02 14:03:32;;;;;;;;;33.25;32.25;;;;;;;;4983164;28;10168;-81
2022/03/02 14:05:59;;;;;;;;;32.75;32.75;;;;;;;;4964889;28;10199;-80
2022/03/02 14:08:26;;;;;;;;;34.75;31.50;;;;;;;;4983721;28;10233;-79
2022/03/02 14:10:54;;;;;;;;;37.50;32.50;;;;;;;;4983393;28;11007;-79
2022/03/02 14:13:31;;;;;;;;;41.50;37.75;;;;;;;;4981819;28;10165;-78
2022/03/02 14:16:05;;;;;;;;;41.25;35.75;;;;;;;;4965393;28;10320;-78
2022/03/02 14:18:33;;;;;;;;;27.00;23.50;;;;;;;;4964946;28;10205;-79
2022/03/02 14:21:00;;;;;;;;;33.25;31.00;;;;;;;;4966086;28;10244;-79
2022/03/02 14:23:28;;;;;;;;;36.25;32.50;;;;;;;;4980384;28;10395;-79
2022/03/02 14:25:56;;;;;;;;;35.25;34.50;;;;;;;;4982792;28;10264;-79
2022/03/02 14:28:23;;;;;;;;;31.00;30.00;;;;;;;;4982390;28;10308;-80
2022/03/02 14:30:54;;;;;;;;;37.50;34.50;;;;;;;;4972075;28;11048;-81